Terminal Aerodrome Forecast
Issued by NWS Wilmington, NC

Home | Current Version | Previous Version | Text Only | Print | Product List | Glossary On
Versions: 1 2 3 4 5 6 7 8 9 10 11 12 13 14 15 16 17 18 19 20 21
000
FTUS42 KILM 010500
TAFILM
TAF
KILM 010523Z 0106/0206 VRB03KT P6SM VCSH SCT035 BKN060
     FM011400 28007KT P6SM VCSH SCT040 BKN100
     FM011800 31010G20KT P6SM -RA SCT025 BKN040 OVC100
     FM020100 32012G20KT P6SM FEW050=

USA.gov is the U.S. government's official web portal to all federal, state and local government web resources and services.